createdAt,value
2018-07-06T00:02:42.578Z,98272.31
2018-07-06T00:05:28.747Z,98271.28
2018-07-06T00:08:14.896Z,98267.05
2018-07-06T00:11:01.062Z,98271.80
2018-07-06T00:13:47.112Z,98270.84
2018-07-06T00:16:33.309Z,98268.48
2018-07-06T00:19:19.588Z,98275.91
2018-07-06T00:22:05.784Z,98274.12
2018-07-06T00:24:46.108Z,98276.52
2018-07-06T00:27:32.251Z,98276.81
2018-07-06T00:30:18.465Z,98272.67
2018-07-06T00:33:04.656Z,98278.27
2018-07-06T00:35:51.820Z,98278.27
2018-07-06T00:38:37.952Z,98280.08
2018-07-06T00:41:24.048Z,98282.95
2018-07-06T00:44:10.126Z,98286.92
2018-07-06T00:46:56.472Z,98283.94
2018-07-06T00:49:43.649Z,98286.34
2018-07-06T00:52:29.959Z,98280.86
2018-07-06T00:55:16.227Z,98282.74
2018-07-06T00:58:02.374Z,98291.73
2018-07-06T01:00:48.560Z,98296.25
2018-07-06T01:03:34.664Z,98294.84
2018-07-06T01:06:21.019Z,98295.23
2018-07-06T01:09:07.333Z,98296.64
2018-07-06T01:11:53.461Z,98300.75
2018-07-06T01:14:39.665Z,98296.77
2018-07-06T01:17:25.848Z,98300.53
2018-07-06T01:20:11.993Z,98300.75
2018-07-06T01:22:58.652Z,98295.45
2018-07-06T01:25:44.672Z,98297.88
2018-07-06T01:28:30.863Z,98300.41
2018-07-06T01:31:17.125Z,98298.57
2018-07-06T01:33:57.393Z,98299.08
2018-07-06T01:36:43.696Z,98293.23
2018-07-06T01:39:30.980Z,98292.93
2018-07-06T01:42:17.305Z,98292.93
2018-07-06T01:44:57.678Z,98291.31
2018-07-06T01:47:37.958Z,98293.11
2018-07-06T01:50:24.166Z,98293.87
2018-07-06T01:53:10.391Z,98295.41
2018-07-06T01:55:56.530Z,98296.44
2018-07-06T01:58:42.831Z,98296.64
2018-07-06T02:01:23.115Z,98302.16
2018-07-06T02:04:09.890Z,98303.19
2018-07-06T02:06:56.112Z,98303.19
2018-07-06T02:09:42.366Z,98304.42
2018-07-06T02:12:28.597Z,98301.91
2018-07-06T02:15:08.925Z,98302.94
2018-07-06T02:17:55.234Z,98307.38
2018-07-06T02:20:41.373Z,98305.41
2018-07-06T02:23:27.574Z,98306.00
2018-07-06T02:26:13.910Z,98309.58
2018-07-06T02:29:00.110Z,98309.49
2018-07-06T02:31:46.309Z,98314.45
2018-07-06T02:34:32.498Z,98315.87
2018-07-06T02:37:18.671Z,98323.38
2018-07-06T02:40:04.978Z,98323.58
2018-07-06T02:42:51.343Z,98323.64
2018-07-06T02:45:37.682Z,98326.53
2018-07-06T02:48:23.939Z,98336.25
2018-07-06T02:51:04.723Z,98339.58
2018-07-06T02:53:50.837Z,98339.37
2018-07-06T02:56:37.119Z,98342.89
2018-07-06T02:59:23.370Z,98336.73
2018-07-06T03:02:09.806Z,98347.78
2018-07-06T03:04:56.374Z,98350.94
2018-07-06T03:07:42.543Z,98357.20
2018-07-06T03:10:28.808Z,98352.95
2018-07-06T03:13:15.500Z,98359.58
2018-07-06T03:16:01.684Z,98365.02
2018-07-06T03:18:47.852Z,98363.91
2018-07-06T03:21:34.034Z,98368.69
2018-07-06T03:24:20.337Z,98358.86
2018-07-06T03:27:06.476Z,98369.14
2018-07-06T03:29:52.780Z,98367.98
2018-07-06T03:32:33.111Z,98368.42
2018-07-06T03:35:19.320Z,98376.37
2018-07-06T03:38:05.570Z,98380.84
2018-07-06T03:40:51.826Z,98378.86
2018-07-06T03:43:38.428Z,98384.39
2018-07-06T03:46:24.812Z,98387.03
2018-07-06T03:49:10.992Z,98385.66
2018-07-06T03:51:57.253Z,98392.78
2018-07-06T03:54:43.547Z,98393.74
2018-07-06T03:57:29.823Z,98393.44
2018-07-06T04:00:15.930Z,98390.44
2018-07-06T04:03:02.041Z,98401.22
2018-07-06T04:05:48.119Z,98402.45
2018-07-06T04:08:34.468Z,98399.80
2018-07-06T04:11:14.699Z,98404.59
2018-07-06T04:14:00.977Z,98411.48
2018-07-06T04:16:47.213Z,98413.26
2018-07-06T04:19:33.398Z,98413.50
2018-07-06T04:22:19.725Z,98414.96
2018-07-06T04:25:06.088Z,98422.66
2018-07-06T04:27:52.309Z,98418.69
2018-07-06T04:30:38.454Z,98413.40
2018-07-06T04:33:24.567Z,98414.44
2018-07-06T04:36:10.797Z,98416.64
2018-07-06T04:38:56.861Z,98422.51
2018-07-06T04:41:43.079Z,98415.26
2018-07-06T04:44:29.412Z,98413.77
2018-07-06T04:47:15.583Z,98419.56
2018-07-06T04:50:01.775Z,98429.06
2018-07-06T04:52:47.920Z,98422.66
2018-07-06T04:55:34.199Z,98432.86
2018-07-06T04:58:20.526Z,98426.62
2018-07-06T05:01:06.789Z,98432.72
2018-07-06T05:03:53.152Z,98439.13
2018-07-06T05:06:39.379Z,98436.98
2018-07-06T05:09:25.473Z,98438.88
2018-07-06T05:12:11.673Z,98447.63
2018-07-06T05:14:57.854Z,98452.77
2018-07-06T05:17:44.198Z,98448.37
2018-07-06T05:20:24.398Z,98452.64
2018-07-06T05:23:10.611Z,98456.09
2018-07-06T05:25:56.882Z,98454.02
2018-07-06T05:28:43.104Z,98460.13
2018-07-06T05:31:29.306Z,98462.63
2018-07-06T05:34:15.603Z,98460.11
2018-07-06T05:37:01.945Z,98460.72
2018-07-06T05:39:48.276Z,98465.84
2018-07-06T05:42:34.558Z,98475.83
2018-07-06T05:45:20.685Z,98464.30
2018-07-06T05:48:06.796Z,98468.66
2018-07-06T05:50:53.128Z,98465.72
2018-07-06T05:53:39.486Z,98475.73
2018-07-06T05:56:25.753Z,98472.70
2018-07-06T05:59:06.017Z,98474.70
2018-07-06T06:01:52.403Z,98470.05
2018-07-06T06:04:38.663Z,98468.87
2018-07-06T06:07:21.304Z,98474.23
2018-07-06T06:09:50.761Z,98471.13
2018-07-06T06:12:20.415Z,98469.15
2018-07-06T06:14:50.576Z,98474.80
2018-07-06T06:17:19.984Z,98472.52
2018-07-06T06:19:49.404Z,98478.74
2018-07-06T06:22:18.850Z,98481.23
2018-07-06T06:24:48.364Z,98476.40
2018-07-06T06:27:17.717Z,98476.21
2018-07-06T06:29:47.232Z,98472.69
2018-07-06T06:32:17.247Z,98476.20
2018-07-06T06:34:46.820Z,98481.92
2018-07-06T06:37:16.437Z,98475.70
2018-07-06T06:39:45.942Z,98475.84
2018-07-06T06:42:15.092Z,98480.69
2018-07-06T06:44:44.577Z,98482.16
2018-07-06T06:47:14.059Z,98484.19
2018-07-06T06:49:43.675Z,98486.98
2018-07-06T06:52:13.196Z,98487.62
2018-07-06T06:54:42.747Z,98490.63
2018-07-06T06:57:12.186Z,98499.50
2018-07-06T06:59:41.774Z,98495.58
2018-07-06T07:02:11.279Z,98496.02
2018-07-06T07:04:40.933Z,98505.17
2018-07-06T07:07:10.423Z,98505.74
2018-07-06T07:09:39.621Z,98496.28
2018-07-06T07:12:09.000Z,98500.69
2018-07-06T07:14:38.514Z,98503.73
2018-07-06T07:17:08.987Z,98502.41
2018-07-06T07:19:38.532Z,98508.02
2018-07-06T07:22:08.000Z,98506.79
2018-07-06T07:24:38.142Z,98516.07
2018-07-06T07:27:07.645Z,98514.96
2018-07-06T07:29:37.120Z,98523.09
2018-07-06T07:32:06.697Z,98521.30
2018-07-06T07:34:36.214Z,98523.28
2018-07-06T07:37:05.666Z,98526.09
2018-07-06T07:39:35.168Z,98524.67
2018-07-06T07:42:04.699Z,98529.69
2018-07-06T07:44:34.398Z,98529.39
2018-07-06T07:47:03.906Z,98532.05
2018-07-06T07:49:33.458Z,98539.33
2018-07-06T07:52:13.811Z,98541.27
2018-07-06T07:54:49.025Z,98539.89
2018-07-06T07:57:18.852Z,98539.76
2018-07-06T07:59:48.647Z,98548.11
2018-07-06T08:02:18.201Z,98542.55
2018-07-06T08:04:48.284Z,98548.33
2018-07-06T08:07:18.640Z,98550.52
2018-07-06T08:09:48.402Z,98549.31
2018-07-06T08:12:17.815Z,98555.48
2018-07-06T08:14:47.295Z,98550.86
2018-07-06T08:17:16.751Z,98554.19
2018-07-06T08:19:46.211Z,98548.67
2018-07-06T08:22:15.632Z,98561.30
2018-07-06T08:24:45.110Z,98576.37
2018-07-06T08:27:14.590Z,98567.25
2018-07-06T08:29:44.045Z,98573.53
2018-07-06T08:32:13.465Z,98574.16
2018-07-06T08:34:59.517Z,98574.06
2018-07-06T08:37:48.863Z,98579.79
2018-07-06T08:40:18.570Z,98580.16
2018-07-06T08:42:52.365Z,98580.64
2018-07-06T08:45:21.821Z,98584.36
2018-07-06T08:47:51.364Z,98584.92
2018-07-06T08:50:20.776Z,98593.23
2018-07-06T08:52:51.116Z,98583.49
2018-07-06T08:55:20.976Z,98592.53
2018-07-06T08:57:51.703Z,98585.37
2018-07-06T09:00:21.180Z,98588.91
2018-07-06T09:02:50.334Z,98583.49
2018-07-06T09:05:19.838Z,98584.08
2018-07-06T09:07:48.987Z,98582.71
2018-07-06T09:10:18.461Z,98587.07
2018-07-06T09:12:47.905Z,98591.31
2018-07-06T09:15:17.347Z,98583.42
2018-07-06T09:17:46.801Z,98594.45
2018-07-06T09:20:16.315Z,98592.76
2018-07-06T09:22:45.685Z,98588.55
2018-07-06T09:25:15.152Z,98589.10
2018-07-06T09:27:44.325Z,98595.89
2018-07-06T09:30:14.238Z,98598.10
2018-07-06T09:32:43.654Z,98597.44
2018-07-06T09:35:13.505Z,98597.38
2018-07-06T09:37:42.381Z,98585.93
2018-07-06T09:40:11.769Z,98593.00
2018-07-06T09:42:41.151Z,98594.43
2018-07-06T09:45:10.339Z,98597.45
2018-07-06T09:47:39.763Z,98593.30
2018-07-06T09:50:09.699Z,98601.92
2018-07-06T09:52:39.096Z,98596.49
2018-07-06T09:55:08.564Z,98602.72
2018-07-06T09:57:38.031Z,98596.91
2018-07-06T10:00:07.549Z,98595.66
2018-07-06T10:02:36.970Z,98599.25
2018-07-06T10:05:06.475Z,98588.94
2018-07-06T10:07:35.913Z,98585.06
2018-07-06T10:10:05.494Z,98599.00
2018-07-06T10:12:34.917Z,98595.69
2018-07-06T10:15:04.355Z,98605.12
2018-07-06T10:17:33.834Z,98607.49
2018-07-06T10:20:03.064Z,98600.50
2018-07-06T10:22:32.484Z,98604.59
2018-07-06T10:25:01.950Z,98608.85
2018-07-06T10:27:46.279Z,98609.16
2018-07-06T10:30:28.502Z,98602.06
2018-07-06T10:32:57.936Z,98600.84
2018-07-06T10:35:27.357Z,98614.00
2018-07-06T10:37:56.794Z,98607.95
2018-07-06T10:40:26.243Z,98611.52
2018-07-06T10:42:55.768Z,98607.34
2018-07-06T10:45:25.249Z,98615.24
2018-07-06T10:47:54.364Z,98610.22
2018-07-06T10:50:23.842Z,98613.41
2018-07-06T10:52:53.384Z,98614.52
2018-07-06T10:55:22.853Z,98614.62
2018-07-06T10:57:52.084Z,98613.58
2018-07-06T11:00:21.564Z,98610.94
2018-07-06T11:02:51.101Z,98622.91
2018-07-06T11:05:20.522Z,98622.60
2018-07-06T11:07:49.995Z,98617.80
2018-07-06T11:10:19.441Z,98610.85
2018-07-06T11:12:48.602Z,98609.31
2018-07-06T11:15:18.208Z,98605.69
2018-07-06T11:17:47.395Z,98610.78
2018-07-06T11:20:16.831Z,98611.06
2018-07-06T11:22:46.235Z,98613.75
2018-07-06T11:25:15.748Z,98615.92
2018-07-06T11:27:45.179Z,98612.72
2018-07-06T11:30:14.588Z,98606.06
2018-07-06T11:32:43.991Z,98611.70
2018-07-06T11:35:13.415Z,98613.31
2018-07-06T11:37:42.840Z,98612.04
2018-07-06T11:40:12.026Z,98609.10
2018-07-06T11:42:41.455Z,98612.52
2018-07-06T11:45:10.964Z,98609.67
2018-07-06T11:47:40.370Z,98610.96
2018-07-06T11:50:09.836Z,98613.63
2018-07-06T11:52:39.294Z,98612.56
2018-07-06T11:55:08.695Z,98613.37
2018-07-06T11:57:38.172Z,98608.80
2018-07-06T12:00:07.347Z,98615.25
2018-07-06T12:02:36.734Z,98607.30
2018-07-06T12:05:07.413Z,98597.25
2018-07-06T12:07:36.623Z,98609.05
2018-07-06T12:10:06.704Z,98601.85
2018-07-06T12:12:36.110Z,98604.52
2018-07-06T12:15:05.674Z,98599.18
2018-07-06T12:17:35.123Z,98599.22
2018-07-06T12:20:04.614Z,98603.75
2018-07-06T12:22:34.057Z,98605.02
2018-07-06T12:25:03.465Z,98600.22
2018-07-06T12:27:32.907Z,98607.13
2018-07-06T12:30:02.355Z,98604.50
2018-07-06T12:32:31.771Z,98604.27
2018-07-06T12:35:02.090Z,98604.34
2018-07-06T12:37:31.593Z,98591.84
2018-07-06T12:40:00.799Z,98589.18
2018-07-06T12:42:30.259Z,98587.62
2018-07-06T12:45:00.679Z,98583.41
2018-07-06T12:47:30.137Z,98579.16
2018-07-06T12:49:59.589Z,98575.67
2018-07-06T12:52:29.061Z,98588.75
2018-07-06T12:54:58.560Z,98586.33
2018-07-06T12:57:27.697Z,98589.52
2018-07-06T12:59:57.166Z,98582.27
2018-07-06T13:02:26.308Z,98582.84
2018-07-06T13:04:57.836Z,98584.18
2018-07-06T13:07:28.251Z,98578.31
2018-07-06T13:10:00.053Z,98578.06
2018-07-06T13:12:30.458Z,98576.20
2018-07-06T13:14:59.826Z,98572.83
2018-07-06T13:17:29.256Z,98577.68
2018-07-06T13:19:58.854Z,98572.61
2018-07-06T13:22:28.242Z,98576.91
2018-07-06T13:24:57.442Z,98576.12
2018-07-06T13:27:26.843Z,98581.49
2018-07-06T13:29:56.202Z,98568.97
2018-07-06T13:32:25.752Z,98571.64
2018-07-06T13:34:55.231Z,98575.64
2018-07-06T13:37:24.694Z,98570.34
2018-07-06T13:39:54.865Z,98571.17
2018-07-06T13:42:24.369Z,98577.05
2018-07-06T13:44:53.841Z,98575.17
2018-07-06T13:47:23.306Z,98579.19
2018-07-06T13:49:52.760Z,98569.56
2018-07-06T13:52:22.174Z,98571.67
2018-07-06T13:54:52.458Z,98578.92
2018-07-06T13:57:22.654Z,98569.27
2018-07-06T13:59:52.098Z,98574.88
2018-07-06T14:02:22.635Z,98568.70
2018-07-06T14:04:52.060Z,98575.91
2018-07-06T14:07:21.531Z,98574.29
2018-07-06T14:09:50.986Z,98577.72
2018-07-06T14:12:20.373Z,98580.89
2018-07-06T14:14:49.783Z,98582.79
2018-07-06T14:17:19.242Z,98579.58
2018-07-06T14:19:48.726Z,98579.27
2018-07-06T14:22:18.209Z,98588.91
2018-07-06T14:24:47.597Z,98585.64
2018-07-06T14:27:17.155Z,98581.56
2018-07-06T14:29:46.645Z,98576.71
2018-07-06T14:32:16.084Z,98578.80
2018-07-06T14:34:45.525Z,98578.53
2018-07-06T14:37:14.991Z,98582.20
2018-07-06T14:39:44.143Z,98584.06
2018-07-06T14:42:13.601Z,98575.70
2018-07-06T14:44:43.386Z,98582.63
2018-07-06T14:47:12.868Z,98582.33
2018-07-06T14:49:42.339Z,98581.49
2018-07-06T14:52:11.793Z,98587.34
2018-07-06T14:54:41.278Z,98589.17
2018-07-06T14:57:10.675Z,98582.34
2018-07-06T14:59:40.200Z,98586.94
2018-07-06T15:02:09.690Z,98583.62
2018-07-06T15:04:39.177Z,98587.62
2018-07-06T15:07:08.548Z,98586.48
2018-07-06T15:09:38.037Z,98590.44
2018-07-06T15:12:07.494Z,98588.22
2018-07-06T15:14:36.999Z,98579.73
2018-07-06T15:17:06.611Z,98584.81
2018-07-06T15:19:35.991Z,98585.42
2018-07-06T15:22:05.551Z,98589.98
2018-07-06T15:24:35.082Z,98592.76
2018-07-06T15:27:04.541Z,98589.38
2018-07-06T15:29:34.041Z,98598.71
2018-07-06T15:32:03.439Z,98595.64
2018-07-06T15:34:32.849Z,98596.71
2018-07-06T15:37:02.293Z,98604.48
2018-07-06T15:39:31.682Z,98603.50
2018-07-06T15:42:01.137Z,98616.67
2018-07-06T15:44:30.263Z,98606.66
2018-07-06T15:46:59.709Z,98606.33
2018-07-06T15:49:29.186Z,98612.47
2018-07-06T15:51:58.615Z,98606.14
2018-07-06T15:54:28.063Z,98601.48
2018-07-06T15:56:57.477Z,98604.48
2018-07-06T15:59:26.869Z,98608.52
2018-07-06T16:01:56.042Z,98612.83
2018-07-06T16:04:25.558Z,98613.45
2018-07-06T16:06:55.016Z,98608.50
2018-07-06T16:09:24.640Z,98618.33
2018-07-06T16:11:54.133Z,98616.31
2018-07-06T16:14:23.638Z,98618.02
2018-07-06T16:16:53.142Z,98619.12
2018-07-06T16:19:22.606Z,98623.15
2018-07-06T16:21:51.840Z,98621.23
2018-07-06T16:24:21.305Z,98621.33
2018-07-06T16:26:51.098Z,98623.42
2018-07-06T16:29:20.518Z,98621.51
2018-07-06T16:31:49.994Z,98622.85
2018-07-06T16:34:19.407Z,98625.35
2018-07-06T16:36:48.920Z,98625.24
2018-07-06T16:39:18.318Z,98631.57
2018-07-06T16:41:47.848Z,98630.17
2018-07-06T16:44:17.526Z,98626.19
2018-07-06T16:46:46.913Z,98630.38
2018-07-06T16:49:16.348Z,98627.02
2018-07-06T16:51:45.784Z,98627.23
2018-07-06T16:54:15.252Z,98629.00
2018-07-06T16:56:44.687Z,98628.47
2018-07-06T16:59:14.189Z,98632.10
2018-07-06T17:01:43.677Z,98629.78
2018-07-06T17:04:13.119Z,98632.94
2018-07-06T17:06:42.644Z,98633.89
2018-07-06T17:09:12.314Z,98637.58
2018-07-06T17:11:41.788Z,98628.56
2018-07-06T17:14:11.268Z,98639.09
2018-07-06T17:16:40.725Z,98635.45
2018-07-06T17:19:10.209Z,98640.66
2018-07-06T17:21:39.661Z,98638.16
2018-07-06T17:24:08.770Z,98635.48
2018-07-06T17:26:38.266Z,98635.61
2018-07-06T17:29:07.384Z,98634.55
2018-07-06T17:31:36.905Z,98642.48
2018-07-06T17:34:06.406Z,98642.34
2018-07-06T17:36:35.835Z,98645.01
2018-07-06T17:39:06.001Z,98639.70
2018-07-06T17:41:35.248Z,98645.78
2018-07-06T17:44:04.805Z,98641.81
2018-07-06T17:46:34.297Z,98646.69
2018-07-06T17:49:03.806Z,98642.05
2018-07-06T17:51:33.272Z,98648.34
2018-07-06T17:54:02.766Z,98648.75
2018-07-06T17:56:32.183Z,98653.51
2018-07-06T17:59:01.636Z,98655.84
2018-07-06T18:01:30.806Z,98662.56
2018-07-06T18:04:00.238Z,98659.16
2018-07-06T18:06:29.345Z,98669.42
2018-07-06T18:08:58.576Z,98675.31
2018-07-06T18:11:28.008Z,98672.95
2018-07-06T18:13:57.511Z,98676.70
2018-07-06T18:16:26.922Z,98677.52
2018-07-06T18:18:56.335Z,98686.09
2018-07-06T18:21:25.822Z,98681.77
2018-07-06T18:23:55.379Z,98681.23
2018-07-06T18:26:24.849Z,98688.70
2018-07-06T18:28:54.293Z,98691.11
2018-07-06T18:31:23.497Z,98688.95
2018-07-06T18:33:53.813Z,98687.30
2018-07-06T18:36:23.364Z,98696.34
2018-07-06T18:38:52.753Z,98702.47
2018-07-06T18:41:22.197Z,98700.03
2018-07-06T18:43:51.691Z,98708.02
2018-07-06T18:46:21.181Z,98708.22
2018-07-06T18:48:50.613Z,98708.45
2018-07-06T18:51:20.037Z,98714.28
2018-07-06T18:53:49.470Z,98713.41
2018-07-06T18:56:18.912Z,98710.86
2018-07-06T18:58:48.365Z,98709.19
2018-07-06T19:01:17.911Z,98717.71
2018-07-06T19:03:47.366Z,98717.34
2018-07-06T19:06:16.860Z,98713.55
2018-07-06T19:08:46.579Z,98721.73
2018-07-06T19:11:16.064Z,98729.14
2018-07-06T19:13:45.563Z,98725.41
2018-07-06T19:16:16.001Z,98731.69
2018-07-06T19:18:45.598Z,98731.62
2018-07-06T19:21:15.065Z,98736.63
2018-07-06T19:23:44.458Z,98744.29
2018-07-06T19:26:13.944Z,98744.23
2018-07-06T19:28:43.385Z,98744.41
2018-07-06T19:31:14.131Z,98745.97
2018-07-06T19:33:43.608Z,98749.91
2018-07-06T19:36:13.009Z,98752.62
2018-07-06T19:38:42.460Z,98759.41
2018-07-06T19:41:11.915Z,98763.59
2018-07-06T19:43:41.052Z,98766.95
2018-07-06T19:46:10.500Z,98766.05
2018-07-06T19:48:39.937Z,98771.49
2018-07-06T19:51:10.411Z,98772.87
2018-07-06T19:53:39.836Z,98777.38
2018-07-06T19:56:09.350Z,98786.03
2018-07-06T19:58:38.807Z,98788.30
2018-07-06T20:01:08.286Z,98790.31
2018-07-06T20:03:37.753Z,98792.16
2018-07-06T20:06:07.212Z,98802.31
2018-07-06T20:08:36.672Z,98803.02
2018-07-06T20:11:06.700Z,98803.17
2018-07-06T20:13:36.322Z,98808.16
2018-07-06T20:16:05.828Z,98811.11
2018-07-06T20:18:35.735Z,98808.34
2018-07-06T20:21:05.291Z,98814.10
2018-07-06T20:23:34.770Z,98816.67
2018-07-06T20:26:04.254Z,98815.41
2018-07-06T20:28:33.691Z,98820.36
2018-07-06T20:31:03.112Z,98817.48
2018-07-06T20:33:33.180Z,98821.31
2018-07-06T20:36:02.689Z,98827.33
2018-07-06T20:38:32.135Z,98832.56
2018-07-06T20:41:01.599Z,98838.27
2018-07-06T20:43:31.289Z,98837.92
2018-07-06T20:46:00.638Z,98838.10
2018-07-06T20:48:30.223Z,98837.11
2018-07-06T20:51:00.052Z,98835.42
2018-07-06T20:53:29.400Z,98842.84
2018-07-06T20:55:58.858Z,98845.62
2018-07-06T20:58:28.299Z,98859.84
2018-07-06T21:00:57.865Z,98856.50
2018-07-06T21:03:27.338Z,98863.02
2018-07-06T21:05:56.519Z,98861.76
2018-07-06T21:08:26.100Z,98862.41
2018-07-06T21:10:55.267Z,98864.34
2018-07-06T21:13:24.705Z,98867.34
2018-07-06T21:15:54.228Z,98867.05
2018-07-06T21:18:24.362Z,98861.48
2018-07-06T21:20:53.914Z,98861.58
2018-07-06T21:23:23.449Z,98861.52
2018-07-06T21:25:52.898Z,98866.37
2018-07-06T21:28:22.106Z,98866.84
2018-07-06T21:30:51.565Z,98858.67
2018-07-06T21:33:21.408Z,98859.94
2018-07-06T21:35:50.880Z,98860.55
2018-07-06T21:38:20.420Z,98853.55
2018-07-06T21:40:49.816Z,98854.52
2018-07-06T21:43:19.269Z,98860.61
2018-07-06T21:45:48.715Z,98859.56
2018-07-06T21:48:18.138Z,98862.58
2018-07-06T21:50:47.710Z,98861.91
2018-07-06T21:53:17.182Z,98868.03
2018-07-06T21:55:46.630Z,98861.78
2018-07-06T21:58:16.078Z,98868.02
2018-07-06T22:00:45.512Z,98869.13
2018-07-06T22:03:15.102Z,98870.02
2018-07-06T22:05:44.518Z,98870.16
2018-07-06T22:08:13.962Z,98869.01
2018-07-06T22:10:43.443Z,98867.22
2018-07-06T22:13:12.877Z,98865.63
2018-07-06T22:15:46.030Z,98869.38
2018-07-06T22:18:17.139Z,98866.93
2018-07-06T22:20:47.685Z,98877.48
2018-07-06T22:23:17.000Z,98876.50
2018-07-06T22:25:46.481Z,98875.92
2018-07-06T22:28:15.964Z,98875.55
2018-07-06T22:30:45.364Z,98878.10
2018-07-06T22:33:14.980Z,98876.70
2018-07-06T22:35:44.397Z,98876.47
2018-07-06T22:38:13.835Z,98881.94
2018-07-06T22:40:43.804Z,98877.08
2018-07-06T22:43:13.318Z,98888.02
2018-07-06T22:45:42.756Z,98888.26
2018-07-06T22:48:12.290Z,98887.70
2018-07-06T22:50:41.431Z,98887.33
2018-07-06T22:53:10.914Z,98886.69
2018-07-06T22:55:40.518Z,98884.11
2018-07-06T22:58:09.666Z,98889.09
2018-07-06T23:00:39.584Z,98888.38
2018-07-06T23:03:08.738Z,98889.84
2018-07-06T23:05:38.309Z,98885.64
2018-07-06T23:08:07.758Z,98885.47
2018-07-06T23:10:37.289Z,98883.20
2018-07-06T23:13:07.099Z,98884.76
2018-07-06T23:15:37.113Z,98879.34
2018-07-06T23:18:06.712Z,98886.52
2018-07-06T23:20:36.281Z,98888.86
2018-07-06T23:23:12.813Z,98884.45
2018-07-06T23:25:47.283Z,98885.19
2018-07-06T23:28:17.070Z,98886.03
2018-07-06T23:30:46.532Z,98884.78
2018-07-06T23:33:16.080Z,98884.94
2018-07-06T23:35:45.536Z,98890.63
2018-07-06T23:38:14.997Z,98883.70
2018-07-06T23:40:44.458Z,98884.56
2018-07-06T23:43:13.864Z,98882.50
2018-07-06T23:45:43.370Z,98884.16
2018-07-06T23:48:12.818Z,98886.39
2018-07-06T23:50:42.373Z,98889.98
2018-07-06T23:53:11.852Z,98889.39
2018-07-06T23:55:41.884Z,98887.13
2018-07-06T23:58:11.050Z,98882.78
